Terminal Aerodrome Forecast
Issued by NWS

Current Version | Previous Version | Text Only | Print | Product List | Glossary On
Versions: 1 2 3 4 5 6 7 8 9 10 11 12 13 14 15 16 17 18 19 20 21 22 23 24 25 26 27 28 29 30 31 32 33 34 35 36 37 38 39 40 41 42 43 44 45 46 47 48 49 50
000
FTUS44 KHGX 302255 AAE
TAFIAH
TAF AMD
KIAH 302255Z 3023/3124 12006KT P6SM VCTS SCT060CB SCT150 BKN250
      TEMPO 3023/3101 VRB20KT 4SM TSRA SCT035CB BKN050
     FM310200 VRB03KT P6SM FEW020 SCT070 BKN250
     FM311800 03008KT P6SM VCSH SCT060 SCT250=

USA.gov is the U.S. government's official web portal to all federal, state and local government web resources and services.